createdAt,value
2019-03-19T00:01:38.805Z,4.23
2019-03-19T00:04:19.241Z,3.87
2019-03-19T00:07:02.513Z,4.47
2019-03-19T00:09:43.365Z,3.77
2019-03-19T00:12:27.497Z,3.77
2019-03-19T00:15:07.995Z,4.23
2019-03-19T00:17:48.190Z,3.87
2019-03-19T00:20:28.119Z,4.27
2019-03-19T00:23:08.183Z,4.40
2019-03-19T00:25:48.544Z,4.33
2019-03-19T00:28:33.020Z,3.63
2019-03-19T00:31:13.003Z,3.90
2019-03-19T00:33:55.659Z,4.17
2019-03-19T00:36:35.708Z,4.33
2019-03-19T00:39:16.559Z,4.17
2019-03-19T00:41:56.385Z,4.33
2019-03-19T00:44:36.715Z,4.30
2019-03-19T00:47:17.237Z,4.37
2019-03-19T00:49:57.624Z,3.90
2019-03-19T00:52:41.438Z,4.03
2019-03-19T00:55:21.434Z,4.27
2019-03-19T00:58:01.611Z,4.60
2019-03-19T01:00:42.178Z,4.90
2019-03-19T01:03:22.451Z,4.33
2019-03-19T01:06:02.687Z,3.80
2019-03-19T01:08:43.357Z,4.33
2019-03-19T01:11:27.624Z,3.93
2019-03-19T01:14:07.880Z,4.07
2019-03-19T01:16:48.221Z,4.33
2019-03-19T01:19:31.419Z,4.07
2019-03-19T01:22:13.950Z,4.73
2019-03-19T01:24:54.778Z,3.80
2019-03-19T01:27:35.095Z,4.77
2019-03-19T01:30:15.985Z,4.67
2019-03-19T01:32:56.587Z,4.67
2019-03-19T01:35:37.599Z,4.50
2019-03-19T01:38:16.331Z,4.80
2019-03-19T05:56:26.906Z,4.63
2019-03-19T05:59:17.578Z,5.17
2019-03-19T06:02:00.204Z,4.83
2019-03-19T06:04:40.277Z,4.97
2019-03-19T06:07:20.350Z,5.00
2019-03-19T06:10:00.688Z,4.40
2019-03-19T06:12:40.793Z,5.40
2019-03-19T06:15:20.778Z,4.70
2019-03-19T06:18:02.912Z,4.90
2019-03-19T06:20:43.290Z,4.83
2019-03-19T06:23:23.593Z,6.67
2019-03-19T06:26:03.421Z,10.63
2019-03-19T06:28:43.475Z,7.50
2019-03-19T06:31:23.464Z,6.33
2019-03-19T06:34:03.764Z,5.90
2019-03-19T06:36:43.935Z,5.60
2019-03-19T06:39:24.334Z,5.03
2019-03-19T06:42:04.671Z,5.73
2019-03-19T06:44:44.680Z,6.50
2019-03-19T06:47:27.539Z,6.37
2019-03-19T06:50:08.410Z,5.60
2019-03-19T06:52:48.836Z,8.20
2019-03-19T06:55:31.800Z,7.10
2019-03-19T06:58:11.587Z,7.07
2019-03-19T07:00:51.955Z,6.83
2019-03-19T07:03:33.994Z,7.00
2019-03-19T07:06:14.113Z,6.13
2019-03-19T07:08:55.446Z,5.67
2019-03-19T07:11:37.937Z,6.43
2019-03-19T07:14:18.772Z,5.90
2019-03-19T07:16:58.975Z,6.60
2019-03-19T07:19:39.395Z,6.50
2019-03-19T07:25:08.910Z,5.40
2019-03-19T07:27:49.694Z,6.27
2019-03-19T07:30:30.376Z,6.03
2019-03-19T07:33:10.680Z,6.57
2019-03-19T07:35:50.762Z,5.37
2019-03-19T07:38:33.518Z,5.53
2019-03-19T07:41:13.476Z,5.57
2019-03-19T07:43:53.678Z,5.77
2019-03-19T07:46:34.239Z,6.00
2019-03-19T07:49:14.145Z,5.63
2019-03-19T07:51:55.365Z,5.00
2019-03-19T07:57:20.623Z,5.17
2019-03-19T08:00:00.769Z,4.93
2019-03-19T08:02:43.285Z,4.97
2019-03-19T08:05:32.452Z,5.10
2019-03-19T08:42:45.522Z,5.53
2019-03-19T08:48:14.784Z,5.83
2019-03-19T08:50:55.112Z,5.53
2019-03-19T08:56:36.100Z,5.90
2019-03-19T09:04:54.285Z,5.57
2019-03-19T09:16:08.135Z,5.70
2019-03-19T09:42:10.970Z,4.13
2019-03-19T09:44:58.419Z,4.63
2019-03-19T09:59:05.627Z,4.13
2019-03-19T10:07:34.193Z,4.30
2019-03-19T10:18:58.731Z,4.30
2019-03-19T10:24:25.768Z,3.80
2019-03-19T10:29:56.410Z,3.53
2019-03-19T10:35:21.408Z,4.47
2019-03-19T11:13:09.021Z,3.70
2019-03-19T11:15:49.331Z,3.73
2019-03-19T11:21:15.541Z,4.00
2019-03-19T11:23:56.123Z,3.77
2019-03-19T11:26:36.477Z,3.83
2019-03-19T11:35:03.129Z,3.17
2019-03-19T11:37:47.303Z,3.00
2019-03-19T11:58:05.973Z,2.70
2019-03-19T12:12:41.455Z,3.60
2019-03-19T14:18:50.573Z,3.87
2019-03-19T14:27:04.125Z,3.37
2019-03-19T14:32:40.507Z,3.37
2019-03-19T14:35:20.515Z,3.10
2019-03-19T14:55:33.130Z,3.03
2019-03-19T14:58:14.588Z,3.43
2019-03-19T15:03:50.953Z,3.07
2019-03-19T15:32:59.907Z,2.83
2019-03-19T15:41:28.810Z,2.17
2019-03-19T16:01:43.315Z,2.77
2019-03-19T16:27:45.100Z,3.03
2019-03-19T16:33:24.533Z,2.70
2019-03-19T18:03:52.626Z,2.17
2019-03-19T18:06:33.730Z,2.53
2019-03-19T18:42:20.923Z,3.30
